Time;durP1;ratioP1;P1;durP2;ratioP2;P2;SDS_P1;SDS_P2;PMS_P1;PMS_P2;Temp;Humidity;BMP_temperature;BMP_pressure;BME280_temperature;BME280_humidity;BME280_pressure;Samples;Min_cycle;Max_cycle;Signal;HPM_P1;HPM_P2
2022/06/20 00:00:43;;;;;;;17.92;12.77;;;24.90;99.90;;;;;;4850360;29;20056;-63
2022/06/20 00:03:26;;;;;;;19.77;13.05;;;24.90;99.90;;;;;;4855911;29;20045;-63
2022/06/20 00:05:54;;;;;;;22.27;12.80;;;24.80;99.90;;;;;;4872651;29;20050;-63
2022/06/20 00:08:22;;;;;;;26.55;13.93;;;24.80;99.90;;;;;;4849618;29;20088;-63
2022/06/20 00:10:52;;;;;;;23.80;13.55;;;24.80;99.90;;;;;;4845890;29;20038;-63
2022/06/20 00:13:27;;;;;;;19.50;13.05;;;24.80;99.90;;;;;;4849573;29;20133;-64
2022/06/20 00:16:00;;;;;;;17.05;12.77;;;24.90;99.90;;;;;;4851245;29;20065;-61
2022/06/20 00:18:29;;;;;;;18.60;12.93;;;24.90;99.90;;;;;;4855698;29;20050;-62
2022/06/20 00:20:57;;;;;;;17.15;11.98;;;24.80;99.90;;;;;;4849896;29;20119;-63
2022/06/20 00:23:24;;;;;;;17.38;12.07;;;24.80;99.90;;;;;;4845785;29;20053;-62
2022/06/20 00:25:51;;;;;;;18.27;12.38;;;24.80;99.90;;;;;;4854282;29;20060;-62
2022/06/20 00:28:19;;;;;;;22.35;12.07;;;24.70;99.90;;;;;;4849121;29;20576;-63
2022/06/20 00:30:47;;;;;;;16.67;11.48;;;24.70;99.90;;;;;;4849038;29;20049;-63
2022/06/20 00:33:14;;;;;;;17.30;11.90;;;24.70;99.90;;;;;;4842118;29;20455;-63
2022/06/20 00:35:42;;;;;;;16.67;11.90;;;24.60;99.90;;;;;;4850313;29;20388;-62
2022/06/20 00:38:17;;;;;;;22.20;12.63;;;24.60;99.90;;;;;;4853605;29;20050;-62
2022/06/20 00:40:57;;;;;;;16.35;11.50;;;24.60;99.90;;;;;;4849240;29;20053;-63
2022/06/20 00:43:38;;;;;;;21.13;12.00;;;24.50;99.90;;;;;;4824992;29;20064;-62
2022/06/20 00:46:51;;;;;;;17.65;11.85;;;24.50;99.90;;;;;;4846302;29;20056;-62
2022/06/20 00:49:52;;;;;;;17.40;11.40;;;24.40;99.90;;;;;;4835988;29;20154;-62
2022/06/20 00:52:43;;;;;;;20.42;11.85;;;24.40;99.90;;;;;;4849383;29;20178;-62
2022/06/20 00:55:29;;;;;;;16.77;11.65;;;24.40;99.90;;;;;;4853922;29;20040;-62
2022/06/20 00:58:54;;;;;;;18.75;11.45;;;24.40;99.90;;;;;;4846741;29;20428;-62
2022/06/20 01:01:41;;;;;;;17.45;11.93;;;24.40;99.90;;;;;;4728283;30;20157;-63
2022/06/20 01:04:40;;;;;;;19.83;12.30;;;24.40;99.90;;;;;;4746823;30;20538;-62
2022/06/20 01:07:33;;;;;;;22.92;11.85;;;24.30;99.90;;;;;;4746579;30;20640;-62
2022/06/20 01:10:20;;;;;;;20.45;11.10;;;24.30;99.90;;;;;;4758810;30;20582;-62
2022/06/20 01:13:11;;;;;;;18.63;11.95;;;24.20;99.90;;;;;;4746862;30;20071;-63
2022/06/20 01:16:12;;;;;;;21.33;12.13;;;24.20;99.90;;;;;;4747565;30;20522;-62
2022/06/20 01:19:01;;;;;;;23.90;12.48;;;24.10;99.90;;;;;;4761595;30;20074;-63
2022/06/20 01:21:47;;;;;;;23.13;12.90;;;24.00;99.90;;;;;;4746354;30;20526;-62
2022/06/20 01:24:45;;;;;;;18.55;11.77;;;24.00;99.90;;;;;;4748544;30;20178;-63
2022/06/20 01:27:41;;;;;;;17.63;10.85;;;23.90;99.90;;;;;;4762109;30;20063;-63
2022/06/20 01:30:32;;;;;;;20.05;12.40;;;23.80;99.90;;;;;;4733542;30;20476;-62
2022/06/20 01:33:20;;;;;;;19.55;13.30;;;23.80;99.90;;;;;;4747158;30;20059;-63
2022/06/20 01:39:16;;;;;;;20.40;12.40;;;23.70;99.90;;;;;;4844443;29;20052;-62
2022/06/20 01:42:18;;;;;;;22.27;14.02;;;23.70;99.90;;;;;;4856366;29;20060;-63
2022/06/20 01:48:21;;;;;;;19.23;13.30;;;23.40;99.90;;;;;;4841777;29;20142;-63
2022/06/20 01:51:18;;;;;;;26.42;15.85;;;23.30;99.90;;;;;;4854908;29;20057;-63
2022/06/20 01:54:08;;;;;;;22.90;14.13;;;23.20;99.90;;;;;;4856398;29;20419;-63
2022/06/20 01:56:54;;;;;;;20.33;13.75;;;23.10;99.90;;;;;;4857130;29;20125;-63
2022/06/20 02:00:17;;;;;;;17.23;13.52;;;23.10;99.90;;;;;;4856958;29;20076;-61
2022/06/20 02:03:11;;;;;;;20.55;12.85;;;23.10;99.90;;;;;;4776387;30;20066;-62
2022/06/20 02:05:59;;;;;;;21.60;13.23;;;23.00;99.90;;;;;;4760698;30;20058;-64
2022/06/20 02:08:53;;;;;;;19.48;12.63;;;23.00;99.90;;;;;;4773399;30;20193;-62
2022/06/20 02:11:41;;;;;;;18.55;12.52;;;23.00;99.90;;;;;;4771436;30;20058;-62
2022/06/20 02:14:41;;;;;;;19.17;11.95;;;22.90;99.90;;;;;;4763046;30;20462;-61
2022/06/20 02:17:33;;;;;;;16.83;12.32;;;22.90;99.90;;;;;;4763433;30;20067;-62
2022/06/20 02:20:23;;;;;;;22.00;12.38;;;22.80;99.90;;;;;;4763595;30;20511;-61
2022/06/20 02:23:10;;;;;;;22.13;12.52;;;22.70;99.90;;;;;;4762654;30;20192;-62
2022/06/20 02:26:01;;;;;;;23.65;13.05;;;22.60;99.90;;;;;;4765596;30;20063;-63
2022/06/20 02:29:03;;;;;;;26.08;13.43;;;22.50;99.90;;;;;;4765181;30;20549;-63
2022/06/20 02:32:00;;;;;;;20.30;12.02;;;22.50;99.90;;;;;;4764217;30;20062;-63
2022/06/20 02:34:47;;;;;;;21.40;12.35;;;22.40;99.90;;;;;;4764067;30;20196;-63
2022/06/20 02:37:35;;;;;;;22.90;11.85;;;22.30;99.90;;;;;;4834629;29;20052;-62
2022/06/20 02:40:25;;;;;;;21.95;11.65;;;22.30;99.90;;;;;;4844905;29;20110;-61
2022/06/20 02:43:13;;;;;;;16.70;10.25;;;22.30;99.90;;;;;;4855822;29;20055;-62
2022/06/20 02:45:59;;;;;;;19.52;10.50;;;22.40;99.90;;;;;;4856518;29;20060;-63
2022/06/20 02:48:48;;;;;;;20.70;10.13;;;22.40;99.90;;;;;;4856493;29;20126;-62
2022/06/20 02:51:38;;;;;;;14.00;8.82;;;22.30;99.90;;;;;;4850241;29;20163;-62
2022/06/20 02:54:27;;;;;;;15.55;9.57;;;22.30;99.90;;;;;;4843811;29;20182;-62
2022/06/20 02:57:29;;;;;;;15.32;9.07;;;22.30;99.90;;;;;;4839746;29;20206;-62
2022/06/20 03:00:20;;;;;;;17.52;8.68;;;22.30;99.90;;;;;;4854501;29;20553;-63
2022/06/20 03:03:13;;;;;;;18.30;9.77;;;22.40;99.90;;;;;;4856488;29;20514;-62
2022/06/20 03:06:03;;;;;;;18.15;10.68;;;22.40;99.90;;;;;;4845123;29;20519;-65
2022/06/20 03:08:49;;;;;;;20.23;10.18;;;22.40;99.90;;;;;;4855239;29;20056;-63
2022/06/20 03:11:37;;;;;;;24.00;10.07;;;22.40;99.90;;;;;;4847403;29;20056;-62
2022/06/20 03:14:31;;;;;;;17.42;9.77;;;22.40;99.90;;;;;;4848420;29;20495;-61
2022/06/20 03:17:19;;;;;;;18.50;10.40;;;22.40;99.90;;;;;;4851210;29;20144;-61
2022/06/20 03:20:11;;;;;;;20.08;9.90;;;22.40;99.90;;;;;;4854673;29;20118;-62
2022/06/20 03:23:25;;;;;;;22.65;11.13;;;22.40;99.90;;;;;;4848204;29;20432;-61
2022/06/20 03:26:18;;;;;;;24.80;14.43;;;22.50;99.90;;;;;;4854397;29;20129;-62
2022/06/20 03:29:05;;;;;;;22.00;11.23;;;22.60;99.90;;;;;;4855286;29;20082;-61
2022/06/20 03:31:53;;;;;;;17.88;11.65;;;22.70;99.90;;;;;;4852144;29;20068;-62
2022/06/20 03:34:39;;;;;;;23.95;12.38;;;22.80;99.90;;;;;;4852037;29;20057;-64
2022/06/20 03:37:24;;;;;;;23.08;13.60;;;22.90;99.90;;;;;;4850233;29;20582;-63
2022/06/20 03:40:12;;;;;;;22.60;12.65;;;23.00;99.90;;;;;;4855705;29;20064;-63
2022/06/20 03:42:59;;;;;;;21.90;12.95;;;23.00;99.90;;;;;;4859536;29;20060;-62
2022/06/20 03:45:57;;;;;;;19.75;13.40;;;23.10;99.90;;;;;;4860075;29;20413;-63
2022/06/20 03:48:58;;;;;;;15.85;12.27;;;23.20;99.90;;;;;;4857038;29;20057;-63
2022/06/20 03:51:51;;;;;;;24.05;13.77;;;23.20;99.90;;;;;;4850601;29;20052;-62
2022/06/20 03:54:51;;;;;;;18.70;12.55;;;23.30;99.90;;;;;;4855597;29;20061;-63
2022/06/20 03:58:02;;;;;;;17.40;12.70;;;23.40;99.90;;;;;;4858123;29;20172;-64
2022/06/20 04:01:00;;;;;;;20.15;12.05;;;23.40;99.90;;;;;;4856510;29;20064;-63
2022/06/20 04:03:51;;;;;;;17.10;11.52;;;23.40;99.90;;;;;;4852738;29;20142;-62
2022/06/20 04:06:45;;;;;;;17.30;11.03;;;23.50;99.90;;;;;;4850561;29;20077;-63
2022/06/20 04:12:50;;;;;;;20.30;12.02;;;23.40;99.90;;;;;;4858340;29;20432;-64
2022/06/20 04:15:48;;;;;;;18.98;12.85;;;23.30;99.90;;;;;;4856207;29;20169;-63
2022/06/20 04:18:43;;;;;;;22.17;13.52;;;23.30;99.90;;;;;;4857562;29;20424;-65
2022/06/20 04:21:52;;;;;;;23.45;12.63;;;23.30;99.90;;;;;;4858952;29;20133;-64
2022/06/20 04:24:41;;;;;;;19.90;12.13;;;23.30;99.90;;;;;;4847814;29;20106;-62
2022/06/20 04:27:42;;;;;;;26.55;13.60;;;23.20;99.90;;;;;;4856637;29;20212;-64
2022/06/20 04:31:04;;;;;;;;;;;23.10;99.90;;;;;;4849178;29;20076;-62
2022/06/20 04:34:17;;;;;;;32.63;13.93;;;23.00;99.90;;;;;;4807194;29;19969;-63
2022/06/20 04:37:23;;;;;;;20.83;13.20;;;22.90;99.90;;;;;;4815215;29;20054;-63
2022/06/20 04:40:35;;;;;;;25.30;13.57;;;22.80;99.90;;;;;;4815390;29;20143;-62
2022/06/20 04:43:33;;;;;;;18.15;12.23;;;22.80;99.90;;;;;;4813388;29;20081;-62
2022/06/20 04:46:24;;;;;;;22.23;12.75;;;22.80;99.90;;;;;;4816537;29;20130;-63
2022/06/20 04:49:15;;;;;;;22.27;12.95;;;22.80;99.90;;;;;;4812086;29;20053;-62
2022/06/20 04:52:01;;;;;;;23.05;12.45;;;22.80;99.90;;;;;;4800803;29;20045;-62
2022/06/20 04:54:47;;;;;;;19.58;12.40;;;22.80;99.90;;;;;;4811289;29;20539;-63
2022/06/20 04:57:33;;;;;;;23.23;13.35;;;23.00;99.90;;;;;;4815170;29;20058;-63
2022/06/20 05:00:23;;;;;;;22.25;12.55;;;23.00;99.90;;;;;;4812375;29;20199;-62
2022/06/20 05:03:14;;;;;;;21.80;11.98;;;22.70;99.90;;;;;;4806815;29;20061;-63
2022/06/20 05:06:01;;;;;;;21.90;11.05;;;22.80;99.90;;;;;;4818005;29;20062;-63
2022/06/20 05:08:53;;;;;;;23.75;11.25;;;22.70;99.90;;;;;;4853006;29;20063;-62
2022/06/20 05:11:44;;;;;;;15.85;10.02;;;22.60;99.90;;;;;;4855976;29;20060;-62
2022/06/20 05:14:37;;;;;;;20.83;10.60;;;22.50;99.90;;;;;;4857556;29;20093;-63
2022/06/20 05:17:27;;;;;;;19.05;9.75;;;22.30;99.90;;;;;;4855950;29;20076;-62
2022/06/20 05:20:32;;;;;;;15.35;8.65;;;22.20;99.90;;;;;;4862618;29;20059;-64
2022/06/20 05:23:28;;;;;;;19.30;9.40;;;22.10;99.90;;;;;;4848499;29;20065;-65
2022/06/20 05:26:27;;;;;;;16.48;9.10;;;22.00;99.90;;;;;;4853879;29;20076;-64
2022/06/20 05:29:29;;;;;;;15.85;9.35;;;22.10;99.90;;;;;;4844457;29;20102;-63
2022/06/20 05:32:21;;;;;;;;;;;22.00;99.90;;;;;;4839278;29;20169;-63
2022/06/20 05:35:21;;;;;;;22.17;9.63;;;22.00;99.90;;;;;;4844913;29;19942;-63
2022/06/20 05:38:01;;;;;;;21.02;9.43;;;22.00;99.90;;;;;;4852563;29;20059;-62
2022/06/20 05:40:39;;;;;;;18.35;9.50;;;22.10;99.90;;;;;;4868229;29;20052;-63
2022/06/20 05:43:30;;;;;;;17.98;9.13;;;22.10;99.90;;;;;;4844307;29;20246;-63
2022/06/20 05:46:19;;;;;;;16.13;9.20;;;22.10;99.90;;;;;;4840065;29;20126;-63
2022/06/20 05:48:53;;;;;;;23.17;9.55;;;22.00;99.90;;;;;;4832636;29;20061;-61
2022/06/20 05:51:24;;;;;;;19.02;9.25;;;21.90;99.90;;;;;;4839884;29;20046;-63
2022/06/20 05:54:03;;;;;;;21.65;9.95;;;21.80;99.90;;;;;;4854793;29;20485;-62
2022/06/20 05:56:37;;;;;;;19.17;9.65;;;21.60;99.90;;;;;;4847111;29;20069;-64
2022/06/20 05:59:06;;;;;;;18.85;9.88;;;21.40;99.90;;;;;;4844365;29;20053;-63
2022/06/20 06:01:39;;;;;;;20.85;10.13;;;21.20;99.90;;;;;;4849950;29;20055;-62
2022/06/20 06:04:22;;;;;;;17.73;10.13;;;21.10;99.90;;;;;;4855476;29;20148;-65
2022/06/20 06:06:56;;;;;;;22.42;10.20;;;21.20;99.90;;;;;;4849835;29;20057;-66
2022/06/20 06:09:54;;;;;;;16.60;9.65;;;21.10;99.90;;;;;;4844075;29;20052;-65
2022/06/20 06:12:29;;;;;;;;;;;21.30;99.90;;;;;;4850028;29;20056;-68
2022/06/20 06:15:17;;;;;;;17.35;9.27;;;21.60;99.90;;;;;;4844095;29;19931;-66
2022/06/20 06:17:57;;;;;;;16.20;9.70;;;21.80;99.90;;;;;;4851055;29;20057;-66
2022/06/20 06:20:28;;;;;;;19.52;9.95;;;22.00;99.90;;;;;;4866595;29;20054;-65
2022/06/20 06:23:00;;;;;;;19.92;9.60;;;21.90;99.90;;;;;;4853126;29;20088;-65
2022/06/20 06:25:32;;;;;;;16.20;9.27;;;21.90;99.90;;;;;;4852542;29;20056;-65
2022/06/20 06:28:10;;;;;;;20.80;9.30;;;21.90;99.90;;;;;;4851500;29;20064;-67
2022/06/20 06:30:45;;;;;;;19.00;9.82;;;21.90;99.90;;;;;;4847717;29;20049;-64
2022/06/20 06:33:24;;;;;;;19.85;8.68;;;22.00;99.90;;;;;;4837612;29;20073;-64
2022/06/20 06:36:40;;;;;;;22.38;10.25;;;21.90;99.90;;;;;;4847209;29;20044;-65
2022/06/20 06:39:32;;;;;;;21.10;9.52;;;21.80;99.90;;;;;;4798484;29;20051;-65
2022/06/20 06:42:03;;;;;;;23.88;11.32;;;21.60;99.90;;;;;;4811999;29;20105;-64
2022/06/20 06:44:36;;;;;;;19.20;10.30;;;21.50;99.90;;;;;;4799011;29;20059;-66
2022/06/20 06:47:10;;;;;;;20.38;10.88;;;21.30;99.90;;;;;;4798264;29;20303;-66
2022/06/20 06:49:47;;;;;;;17.25;10.38;;;21.20;99.90;;;;;;4798667;29;20055;-65
2022/06/20 06:52:28;;;;;;;16.17;9.70;;;21.20;99.90;;;;;;4798735;29;20554;-66
2022/06/20 06:55:19;;;;;;;19.10;11.07;;;21.20;99.90;;;;;;4799694;29;20063;-67
2022/06/20 06:57:54;;;;;;;21.60;10.55;;;21.20;99.90;;;;;;4788503;29;20051;-66
2022/06/20 07:00:36;;;;;;;18.92;10.68;;;21.10;99.90;;;;;;4797767;29;20042;-66
2022/06/20 07:03:13;;;;;;;24.05;11.60;;;21.00;99.90;;;;;;4792769;29;20058;-66
2022/06/20 07:05:51;;;;;;;20.00;10.85;;;20.90;99.90;;;;;;4795568;29;20526;-65
2022/06/20 07:08:46;;;;;;;20.08;10.15;;;20.90;99.90;;;;;;4798286;29;20054;-68
2022/06/20 07:11:24;;;;;;;18.58;9.77;;;21.00;99.90;;;;;;4809386;29;20043;-66
2022/06/20 07:14:19;;;;;;;24.52;11.30;;;21.10;99.90;;;;;;4838592;29;20053;-67
2022/06/20 07:17:37;;;;;;;21.83;10.60;;;21.20;99.90;;;;;;4852648;29;20037;-66
2022/06/20 07:20:05;;;;;;;21.33;11.20;;;21.40;99.90;;;;;;4795245;29;20058;-69
2022/06/20 07:22:36;;;;;;;18.52;10.52;;;21.60;99.90;;;;;;4784214;29;20495;-67
2022/06/20 07:25:04;;;;;;;22.70;9.15;;;21.90;99.90;;;;;;4786041;29;20142;-65
2022/06/20 07:28:01;;;;;;;19.08;10.30;;;21.90;99.90;;;;;;4796547;29;20138;-65
2022/06/20 07:30:36;;;;;;;21.63;9.93;;;21.80;99.90;;;;;;4765738;29;20047;-65
2022/06/20 07:33:13;;;;;;;18.80;9.88;;;22.00;99.90;;;;;;4795169;29;20592;-66
2022/06/20 07:35:47;;;;;;;15.23;9.10;;;22.30;99.90;;;;;;4784685;29;20054;-66
2022/06/20 07:38:22;;;;;;;13.30;8.65;;;22.20;99.90;;;;;;4793557;29;20070;-65
2022/06/20 07:41:21;;;;;;;16.88;10.07;;;22.20;99.90;;;;;;4789197;29;20107;-64
2022/06/20 07:43:54;;;;;;;14.85;9.13;;;22.30;99.90;;;;;;4798466;29;20055;-65
2022/06/20 07:46:32;;;;;;;18.40;9.57;;;22.40;99.90;;;;;;4795355;29;20120;-65
2022/06/20 07:49:06;;;;;;;13.55;9.23;;;22.40;99.90;;;;;;4780263;29;20059;-65
2022/06/20 07:51:38;;;;;;;20.50;9.48;;;22.70;99.90;;;;;;4827427;29;20405;-66
2022/06/20 07:54:20;;;;;;;14.10;8.57;;;23.10;99.90;;;;;;4848243;29;20088;-65
2022/06/20 07:57:06;;;;;;;16.50;9.13;;;23.30;99.90;;;;;;4858726;29;20049;-66
2022/06/20 07:59:40;;;;;;;16.70;8.82;;;23.50;99.90;;;;;;4858342;29;20046;-66
2022/06/20 08:02:19;;;;;;;12.10;8.32;;;23.40;99.90;;;;;;4840476;29;20373;-66
2022/06/20 08:04:55;;;;;;;18.27;8.88;;;23.70;99.90;;;;;;4856171;29;20501;-67
2022/06/20 08:07:29;;;;;;;15.30;8.70;;;24.00;99.90;;;;;;4846079;29;20065;-66
2022/06/20 08:10:20;;;;;;;18.13;9.30;;;24.10;99.90;;;;;;4832343;29;20579;-66
2022/06/20 08:13:12;;;;;;;16.10;9.48;;;23.80;99.90;;;;;;4858125;29;20041;-67
2022/06/20 08:15:46;;;;;;;17.23;9.45;;;23.50;99.90;;;;;;4852870;29;20076;-65
2022/06/20 08:18:14;;;;;;;20.35;9.20;;;23.10;99.90;;;;;;4858058;29;20071;-65
2022/06/20 08:20:47;;;;;;;19.55;9.32;;;23.10;99.90;;;;;;4857233;29;20053;-65
2022/06/20 08:23:22;;;;;;;17.13;8.90;;;22.90;99.90;;;;;;4858617;29;20175;-64
2022/06/20 08:25:52;;;;;;;14.85;7.55;;;22.80;99.90;;;;;;4839699;29;20046;-66
2022/06/20 08:28:40;;;;;;;15.88;8.43;;;22.90;99.90;;;;;;4864036;29;20576;-65
2022/06/20 08:31:18;;;;;;;19.00;8.20;;;23.10;99.90;;;;;;4852573;29;20050;-65
2022/06/20 08:33:45;;;;;;;15.55;8.68;;;23.20;99.90;;;;;;4839035;29;20133;-66
2022/06/20 08:36:30;;;;;;;15.35;8.60;;;23.50;99.90;;;;;;4842834;29;20110;-66
2022/06/20 08:39:20;;;;;;;;;;;23.70;99.90;;;;;;4858448;29;20126;-66
2022/06/20 08:42:06;;;;;;;14.55;7.75;;;23.80;99.90;;;;;;4855312;29;19928;-66
2022/06/20 08:44:55;;;;;;;17.88;8.25;;;23.90;99.90;;;;;;4857522;29;20061;-65
2022/06/20 08:47:48;;;;;;;18.05;8.98;;;24.10;99.90;;;;;;4846499;29;20556;-65
2022/06/20 08:50:52;;;;;;;14.15;8.32;;;24.00;99.90;;;;;;4857609;29;20042;-64
2022/06/20 08:53:52;;;;;;;16.48;8.90;;;24.20;99.90;;;;;;4848026;29;20052;-65
2022/06/20 08:56:33;;;;;;;18.58;8.65;;;24.60;99.90;;;;;;4849391;29;20488;-65
2022/06/20 08:59:07;;;;;;;17.67;8.50;;;24.20;99.90;;;;;;4840568;29;20543;-66
2022/06/20 09:01:48;;;;;;;15.63;8.85;;;24.20;99.90;;;;;;4833006;29;20053;-66
2022/06/20 09:04:18;;;;;;;19.30;8.75;;;24.10;99.90;;;;;;4857660;29;20068;-67
2022/06/20 09:07:23;;;;;;;17.33;9.23;;;24.40;99.90;;;;;;4852317;29;20196;-66
2022/06/20 09:10:19;;;;;;;17.42;8.93;;;24.30;99.90;;;;;;4851191;29;20045;-65
2022/06/20 09:13:16;;;;;;;16.25;8.85;;;24.50;99.90;;;;;;4854608;29;20049;-66
2022/06/20 09:16:00;;;;;;;17.23;8.90;;;24.50;99.90;;;;;;4838023;29;20141;-66
2022/06/20 09:18:48;;;;;;;14.38;8.00;;;24.40;99.90;;;;;;4857523;29;20512;-66
2022/06/20 09:21:30;;;;;;;15.43;7.95;;;24.20;99.90;;;;;;4844862;29;20497;-64
2022/06/20 09:24:13;;;;;;;15.50;7.25;;;24.30;99.90;;;;;;4843777;29;20056;-65
2022/06/20 09:27:07;;;;;;;14.05;7.65;;;24.50;99.90;;;;;;4847886;29;20081;-68
2022/06/20 09:29:53;;;;;;;14.75;7.53;;;24.50;99.90;;;;;;4855182;29;20049;-66
2022/06/20 09:32:58;;;;;;;17.95;7.57;;;24.60;99.90;;;;;;4838668;29;20038;-66
2022/06/20 09:36:02;;;;;;;16.95;6.72;;;24.80;99.90;;;;;;4856826;29;20045;-64
2022/06/20 09:38:47;;;;;;;16.70;7.97;;;24.80;99.90;;;;;;4854583;29;20077;-66
2022/06/20 09:41:42;;;;;;;13.82;7.22;;;24.70;99.90;;;;;;4854707;29;20058;-65
2022/06/20 09:44:19;;;;;;;16.25;6.65;;;24.90;99.90;;;;;;4838755;29;20054;-68
2022/06/20 09:47:21;;;;;;;18.38;7.43;;;25.10;99.90;;;;;;4832255;29;20049;-66
2022/06/20 09:50:18;;;;;;;15.18;7.15;;;25.30;99.90;;;;;;4854498;29;20398;-66
2022/06/20 09:53:19;;;;;;;17.38;7.05;;;25.40;99.90;;;;;;4852587;29;20060;-67
2022/06/20 09:56:12;;;;;;;10.60;6.32;;;25.70;99.90;;;;;;4851760;29;20515;-64
2022/06/20 09:58:54;;;;;;;10.98;5.82;;;25.70;99.90;;;;;;4843166;29;20053;-65
2022/06/20 10:01:31;;;;;;;13.52;6.70;;;25.80;99.90;;;;;;4840389;29;20046;-65
2022/06/20 10:04:32;;;;;;;18.33;7.22;;;25.80;99.90;;;;;;4856207;29;20053;-65
2022/06/20 10:07:51;;;;;;;13.20;6.13;;;25.90;99.90;;;;;;4837856;29;20046;-66
2022/06/20 10:10:24;;;;;;;15.95;7.60;;;26.20;99.90;;;;;;4852179;29;22360;-66
2022/06/20 10:13:02;;;;;;;15.02;7.03;;;26.30;99.90;;;;;;4856326;29;20041;-65
2022/06/20 10:15:39;;;;;;;11.45;6.18;;;26.40;99.90;;;;;;4856327;29;20052;-67
2022/06/20 10:18:28;;;;;;;11.52;6.55;;;26.60;99.90;;;;;;4842399;29;20523;-65
2022/06/20 10:21:15;;;;;;;15.85;7.20;;;26.80;99.90;;;;;;4854481;29;20049;-66
2022/06/20 10:24:09;;;;;;;12.15;6.07;;;27.00;99.90;;;;;;4856968;29;20053;-67
2022/06/20 10:27:05;;;;;;;10.02;5.72;;;27.20;99.90;;;;;;4845628;29;20049;-65
2022/06/20 10:29:47;;;;;;;12.63;6.53;;;27.30;99.90;;;;;;4854449;29;20050;-66
2022/06/20 10:32:30;;;;;;;15.88;7.35;;;27.50;99.90;;;;;;4848153;29;20049;-64
2022/06/20 10:35:10;;;;;;;15.13;6.95;;;27.70;99.90;;;;;;4852795;29;20076;-64
2022/06/20 10:38:01;;;;;;;13.70;5.95;;;28.20;99.90;;;;;;4849125;29;20520;-63
2022/06/20 10:40:53;;;;;;;9.30;5.47;;;28.60;99.90;;;;;;4852190;29;20062;-65
2022/06/20 10:43:46;;;;;;;10.43;6.00;;;29.20;99.90;;;;;;4855140;29;20053;-64
2022/06/20 10:46:39;;;;;;;14.43;6.38;;;29.00;99.90;;;;;;4853777;29;20085;-63
2022/06/20 10:49:22;;;;;;;15.73;6.78;;;29.00;99.90;;;;;;4856066;29;20591;-63
2022/06/20 10:52:32;;;;;;;14.95;6.55;;;29.10;99.90;;;;;;4869859;29;20824;-62
2022/06/20 10:55:07;;;;;;;14.90;6.15;;;29.00;99.90;;;;;;4859429;29;20065;-63
2022/06/20 10:57:48;;;;;;;13.18;5.85;;;29.20;99.90;;;;;;4858292;29;20046;-62
2022/06/20 11:00:20;;;;;;;11.48;5.60;;;29.40;99.90;;;;;;4856419;29;20050;-63
2022/06/20 11:02:56;;;;;;;11.57;5.43;;;29.40;99.90;;;;;;4857414;29;20041;-63
2022/06/20 11:05:42;;;;;;;14.98;5.53;;;29.30;99.90;;;;;;4846952;29;20564;-62
2022/06/20 11:08:19;;;;;;;11.68;5.20;;;29.20;99.90;;;;;;4855082;29;20812;-63
2022/06/20 11:10:55;;;;;;;10.70;5.18;;;29.50;99.90;;;;;;4854989;29;20128;-63
2022/06/20 11:13:38;;;;;;;15.07;5.10;;;29.80;99.90;;;;;;4858124;29;20420;-65
2022/06/20 11:16:24;;;;;;;10.88;5.28;;;30.30;99.90;;;;;;4852494;29;20640;-64
2022/06/20 11:18:54;;;;;;;13.90;5.15;;;29.80;99.90;;;;;;4847168;29;20445;-64
2022/06/20 11:21:32;;;;;;;13.32;5.22;;;29.80;99.90;;;;;;4846676;29;20120;-64
2022/06/20 11:24:15;;;;;;;10.23;5.10;;;29.90;99.90;;;;;;4865763;29;20049;-65
2022/06/20 11:27:08;;;;;;;12.80;5.25;;;29.10;99.90;;;;;;4859597;29;20117;-65
2022/06/20 11:30:04;;;;;;;13.88;4.68;;;29.20;99.90;;;;;;4857322;29;20056;-63
2022/06/20 11:33:05;;;;;;;11.32;4.72;;;29.30;99.90;;;;;;4840944;29;20110;-62
2022/06/20 11:35:49;;;;;;;16.13;4.72;;;29.50;99.90;;;;;;4841058;29;20102;-62
2022/06/20 11:38:31;;;;;;;9.98;4.25;;;28.90;99.90;;;;;;4850219;29;20050;-63
2022/06/20 11:41:05;;;;;;;10.85;4.57;;;28.80;99.90;;;;;;4852097;29;20056;-62
2022/06/20 11:43:36;;;;;;;11.07;4.28;;;28.10;99.90;;;;;;4846046;29;20564;-61
2022/06/20 11:46:38;;;;;;;8.85;4.30;;;27.90;99.90;;;;;;4829938;29;20076;-61
2022/06/20 11:49:34;;;;;;;10.90;4.55;;;27.80;99.90;;;;;;4853484;29;20050;-63
2022/06/20 11:52:13;;;;;;;9.60;4.10;;;27.90;99.90;;;;;;4798780;29;20051;-63
2022/06/20 11:54:48;;;;;;;11.80;4.90;;;27.90;99.90;;;;;;4799334;29;20103;-63
2022/06/20 11:57:38;;;;;;;11.07;4.20;;;28.00;99.90;;;;;;4798420;29;20394;-63
2022/06/20 12:00:25;;;;;;;13.05;4.15;;;28.00;99.90;;;;;;4791519;29;20683;-65
2022/06/20 12:03:16;;;;;;;11.95;3.80;;;28.00;99.90;;;;;;4801606;29;20061;-63
2022/06/20 12:06:03;;;;;;;8.38;4.25;;;27.80;99.90;;;;;;4801326;29;20120;-63
2022/06/20 12:08:43;;;;;;;9.20;3.63;;;27.70;99.90;;;;;;4783194;29;20601;-65
2022/06/20 12:11:38;;;;;;;12.27;4.20;;;27.50;99.90;;;;;;4797221;29;20055;-64
2022/06/20 12:14:26;;;;;;;13.07;4.32;;;27.10;99.90;;;;;;4764989;30;20048;-65
2022/06/20 12:17:20;;;;;;;10.95;4.03;;;27.10;99.90;;;;;;4765239;30;20138;-65
2022/06/20 12:25:52;;;;;;;10.15;2.80;;;26.50;99.90;;;;;;4765035;30;20475;-63
2022/06/20 12:28:25;;;;;;;8.23;2.95;;;26.40;99.90;;;;;;4738346;30;20062;-63
2022/06/20 12:31:07;;;;;;;6.72;2.33;;;27.00;99.90;;;;;;4784875;29;20142;-64
2022/06/20 12:33:57;;;;;;;10.77;2.90;;;26.90;99.90;;;;;;4804615;29;20425;-64
2022/06/20 12:36:42;;;;;;;5.93;2.42;;;26.40;99.90;;;;;;4788786;29;20103;-64
2022/06/20 12:39:27;;;;;;;13.35;2.83;;;25.90;99.90;;;;;;4808996;29;20727;-64
2022/06/20 12:42:04;;;;;;;9.10;2.67;;;25.20;99.90;;;;;;4815417;29;20597;-63
2022/06/20 12:45:06;;;;;;;8.57;2.50;;;24.60;99.90;;;;;;4810598;29;20062;-63
2022/06/20 12:47:56;;;;;;;9.43;3.00;;;24.40;99.90;;;;;;4790145;29;20058;-64
2022/06/20 12:50:39;;;;;;;8.70;2.92;;;24.40;99.90;;;;;;4811378;29;20057;-61
2022/06/20 12:53:41;;;;;;;7.18;2.88;;;24.50;99.90;;;;;;4856287;29;20488;-63
2022/06/20 12:56:32;;;;;;;8.60;2.97;;;24.60;99.90;;;;;;4847448;29;20050;-63
2022/06/20 12:59:09;;;;;;;9.17;2.80;;;24.60;99.90;;;;;;4824167;29;20580;-64
2022/06/20 13:01:40;;;;;;;7.95;2.97;;;24.80;99.90;;;;;;4850399;29;20072;-62
2022/06/20 13:04:20;;;;;;;;;;;24.90;99.90;;;;;;4853065;29;20056;-64
2022/06/20 13:07:25;;;;;;;8.88;2.55;;;25.00;99.90;;;;;;4853033;29;19925;-65
2022/06/20 13:10:14;;;;;;;4.65;2.10;;;25.30;99.90;;;;;;4844812;29;20065;-65
2022/06/20 13:12:53;;;;;;;9.70;2.67;;;25.60;99.90;;;;;;4850570;29;20054;-63
2022/06/20 13:15:51;;;;;;;6.75;2.60;;;26.20;99.90;;;;;;4857248;29;20524;-63
2022/06/20 13:18:37;;;;;;;7.28;2.20;;;26.40;99.90;;;;;;4852768;29;20076;-66
2022/06/20 13:21:10;;;;;;;9.23;2.30;;;26.30;99.90;;;;;;4852910;29;20055;-63
2022/06/20 13:24:18;;;;;;;4.50;2.10;;;26.90;99.90;;;;;;4857006;29;20075;-66
2022/06/20 13:27:03;;;;;;;7.88;2.42;;;27.10;99.90;;;;;;4840221;29;20527;-64
2022/06/20 13:29:54;;;;;;;5.05;2.42;;;27.00;99.90;;;;;;4853989;29;20053;-64
2022/06/20 13:33:03;;;;;;;6.53;2.55;;;27.10;99.90;;;;;;4851504;29;20100;-64
2022/06/20 13:35:53;;;;;;;7.47;2.78;;;25.90;99.90;;;;;;4826382;29;20110;-65
2022/06/20 13:38:49;;;;;;;6.85;2.60;;;26.00;99.90;;;;;;4830301;29;20068;-65
2022/06/20 13:41:46;;;;;;;6.20;2.50;;;25.90;99.90;;;;;;4821103;29;20567;-62
2022/06/20 13:44:17;;;;;;;8.38;2.88;;;25.70;99.90;;;;;;4836026;29;20562;-64
2022/06/20 13:46:48;;;;;;;6.25;3.40;;;25.30;99.90;;;;;;4836169;29;20126;-64
2022/06/20 13:49:18;;;;;;;5.20;2.75;;;25.50;99.90;;;;;;4836172;29;20455;-66
2022/06/20 13:52:09;;;;;;;8.18;2.65;;;25.30;99.90;;;;;;4821094;29;20084;-61
2022/06/20 13:55:01;;;;;;;7.75;2.83;;;24.90;99.90;;;;;;4836121;29;20233;-65
2022/06/20 13:57:44;;;;;;;6.03;2.53;;;24.70;99.90;;;;;;4836235;29;20065;-65
2022/06/20 14:00:22;;;;;;;8.63;2.58;;;24.40;99.90;;;;;;4831083;29;20083;-64
2022/06/20 14:03:12;;;;;;;7.97;3.10;;;24.20;99.90;;;;;;4835443;29;20137;-63
2022/06/20 14:05:46;;;;;;;5.45;2.90;;;23.90;99.90;;;;;;4829813;29;20089;-64
2022/06/20 14:08:24;;;;;;;6.45;3.05;;;23.60;99.90;;;;;;4818053;29;20539;-65
2022/06/20 14:10:53;;;;;;;8.35;3.38;;;23.70;99.90;;;;;;4840898;29;20571;-65
2022/06/20 14:13:32;;;;;;;7.43;3.00;;;23.60;99.90;;;;;;4855717;29;20160;-65
2022/06/20 14:16:22;;;;;;;7.45;2.72;;;23.70;99.90;;;;;;4855324;29;20063;-68
2022/06/20 14:19:27;;;;;;;7.28;3.03;;;23.50;99.90;;;;;;4850791;29;20057;-65
2022/06/20 14:21:58;;;;;;;6.35;2.67;;;23.40;99.90;;;;;;4851911;29;20059;-66
2022/06/20 14:24:37;;;;;;;6.78;2.83;;;23.20;99.90;;;;;;4849841;29;20046;-65
2022/06/20 14:27:14;;;;;;;4.32;2.70;;;23.00;99.90;;;;;;4848966;29;20053;-63
2022/06/20 14:30:07;;;;;;;7.18;2.95;;;22.70;99.90;;;;;;4847965;29;20047;-62